Time;durP1;ratioP1;P1;durP2;ratioP2;P2;SDS_P1;SDS_P2;PMS_P1;PMS_P2;Temp;Humidity;BMP_temperature;BMP_pressure;BME280_temperature;BME280_humidity;BME280_pressure;Samples;Min_cycle;Max_cycle;Signal;HPM_P1;HPM_P2
2022/11/28 00:00:52;;;;;;;28.25;14.75;;;6.70;99.90;;;;;;4856510;29;20053;-81
2022/11/28 00:03:17;;;;;;;33.75;16.02;;;6.70;99.90;;;;;;4857798;29;20036;-81
2022/11/28 00:05:43;;;;;;;31.90;16.48;;;6.70;99.90;;;;;;4853149;29;20041;-81
2022/11/28 00:08:08;;;;;;;25.02;15.40;;;6.70;99.90;;;;;;4861804;29;20044;-81
2022/11/28 00:10:38;;;;;;;34.33;17.27;;;6.70;99.90;;;;;;4852425;29;20045;-81
2022/11/28 00:13:04;;;;;;;26.63;16.00;;;6.70;99.90;;;;;;4862957;29;20045;-82
2022/11/28 00:15:29;;;;;;;34.22;17.15;;;6.70;99.90;;;;;;4865036;29;20487;-80
2022/11/28 00:17:55;;;;;;;33.65;17.45;;;6.70;99.90;;;;;;4865837;29;20824;-81
2022/11/28 00:20:21;;;;;;;36.75;17.55;;;6.70;99.90;;;;;;4870940;29;20072;-81
2022/11/28 00:22:46;;;;;;;33.10;19.25;;;6.70;99.90;;;;;;4869080;29;20053;-82
2022/11/28 00:25:12;;;;;;;30.95;17.63;;;6.70;99.90;;;;;;4866320;29;20534;-82
2022/11/28 00:27:38;;;;;;;30.23;17.77;;;6.70;99.90;;;;;;4867647;29;20064;-82
2022/11/28 00:30:04;;;;;;;31.48;18.48;;;6.70;99.90;;;;;;4866528;29;20232;-82
2022/11/28 00:32:30;;;;;;;31.02;17.35;;;6.70;99.90;;;;;;4854913;29;20523;-82
2022/11/28 00:34:56;;;;;;;31.15;17.63;;;6.70;99.90;;;;;;4844027;29;20029;-81
2022/11/28 00:37:21;;;;;;;31.85;18.85;;;6.70;99.90;;;;;;4863435;29;20178;-81
2022/11/28 00:39:47;;;;;;;35.53;18.52;;;6.70;99.90;;;;;;4849058;29;20411;-79
2022/11/28 00:42:13;;;;;;;28.15;16.60;;;6.70;99.90;;;;;;4851846;29;20068;-79
2022/11/28 00:44:38;;;;;;;24.80;15.43;;;6.60;99.90;;;;;;4853678;29;20071;-78
2022/11/28 00:47:04;;;;;;;25.05;14.80;;;6.60;99.90;;;;;;4858616;29;20041;-80
2022/11/28 00:49:30;;;;;;;30.98;14.35;;;6.60;99.90;;;;;;4863518;29;20044;-79
2022/11/28 00:51:55;;;;;;;26.67;14.50;;;6.60;99.90;;;;;;4858496;29;20500;-79
2022/11/28 00:54:21;;;;;;;26.92;14.43;;;6.60;99.90;;;;;;4854639;29;20751;-78
2022/11/28 00:56:46;;;;;;;23.05;13.48;;;6.70;99.90;;;;;;4861742;29;20044;-77
2022/11/28 00:59:12;;;;;;;22.70;13.73;;;6.70;99.90;;;;;;4863916;29;20136;-78
2022/11/28 01:01:42;;;;;;;25.23;13.45;;;6.70;99.90;;;;;;4857804;29;20123;-77
2022/11/28 01:04:10;;;;;;;26.38;14.40;;;6.70;99.90;;;;;;4855102;29;20486;-79
2022/11/28 01:06:39;;;;;;;23.42;14.05;;;6.70;99.90;;;;;;4845336;29;20045;-78
2022/11/28 01:09:08;;;;;;;24.60;13.98;;;6.70;99.90;;;;;;4847433;29;20510;-80
2022/11/28 01:11:36;;;;;;;23.67;13.43;;;6.70;99.90;;;;;;4855138;29;20679;-80
2022/11/28 01:14:02;;;;;;;24.58;13.45;;;6.70;99.90;;;;;;4855234;29;20189;-80
2022/11/28 01:16:28;;;;;;;26.77;14.77;;;6.70;99.90;;;;;;4856342;29;20821;-80
2022/11/28 01:18:53;;;;;;;24.73;14.20;;;6.70;99.90;;;;;;4858750;29;20418;-80
2022/11/28 01:21:19;;;;;;;26.10;14.95;;;6.60;99.90;;;;;;4847964;29;20067;-80
2022/11/28 01:23:45;;;;;;;26.83;14.80;;;6.60;99.90;;;;;;4850896;29;20080;-82
2022/11/28 01:26:15;;;;;;;24.58;14.38;;;6.60;99.90;;;;;;4852569;29;20040;-82
2022/11/28 01:28:41;;;;;;;23.88;15.05;;;6.50;99.90;;;;;;4855607;29;20470;-81
2022/11/28 01:31:09;;;;;;;28.13;15.77;;;6.60;99.90;;;;;;4854850;29;20057;-81
2022/11/28 01:33:34;;;;;;;30.58;16.23;;;6.60;99.90;;;;;;4853791;29;20033;-81
2022/11/28 01:36:01;;;;;;;29.08;17.38;;;6.60;99.90;;;;;;4847339;29;20087;-81
2022/11/28 01:38:27;;;;;;;30.40;16.15;;;6.60;99.90;;;;;;4840836;29;20400;-79
2022/11/28 01:40:54;;;;;;;35.03;17.92;;;6.60;99.90;;;;;;4853293;29;20038;-80
2022/11/28 01:43:20;;;;;;;35.83;18.30;;;6.60;99.90;;;;;;4852450;29;20442;-79
2022/11/28 01:45:46;;;;;;;31.92;17.27;;;6.60;99.90;;;;;;4850714;29;20586;-81
2022/11/28 01:48:17;;;;;;;37.50;17.95;;;6.60;99.90;;;;;;4857267;29;20053;-79
2022/11/28 01:50:45;;;;;;;30.75;17.73;;;6.60;99.90;;;;;;4854662;29;20045;-79
2022/11/28 01:53:11;;;;;;;34.20;18.77;;;6.60;99.90;;;;;;4852852;29;20625;-79
2022/11/28 01:55:48;;;;;;;38.40;19.17;;;6.60;99.90;;;;;;4856856;29;20056;-78
2022/11/28 01:58:14;;;;;;;34.35;18.15;;;6.70;99.90;;;;;;4851533;29;20049;-77
2022/11/28 02:00:39;;;;;;;34.97;18.90;;;6.70;99.90;;;;;;4854056;29;20060;-77
2022/11/28 02:03:17;;;;;;;30.98;17.05;;;6.70;99.90;;;;;;4854398;29;20790;-77
2022/11/28 02:05:44;;;;;;;31.13;17.25;;;6.70;99.90;;;;;;4848278;29;20043;-76
2022/11/28 02:08:09;;;;;;;30.65;17.23;;;6.70;99.90;;;;;;4856109;29;20048;-77
2022/11/28 02:11:14;;;;;;;31.02;17.02;;;6.70;99.90;;;;;;4851878;29;20029;-77
2022/11/28 02:13:53;;;;;;;34.08;16.73;;;6.70;99.90;;;;;;4846289;29;20571;-76
2022/11/28 02:16:49;;;;;;;28.00;16.20;;;6.70;99.90;;;;;;4851814;29;20060;-76
2022/11/28 02:19:45;;;;;;;30.00;16.83;;;6.70;99.90;;;;;;4852758;29;20596;-77
2022/11/28 02:22:20;;;;;;;28.35;17.92;;;6.70;99.90;;;;;;4854425;29;20073;-76
2022/11/28 02:25:10;;;;;;;35.85;19.52;;;6.70;99.90;;;;;;4853366;29;20049;-76
2022/11/28 02:28:06;;;;;;;29.58;16.08;;;6.80;99.90;;;;;;4856491;29;20040;-77
2022/11/28 02:31:09;;;;;;;31.42;16.50;;;6.80;99.90;;;;;;4853466;29;20131;-77
2022/11/28 02:33:40;;;;;;;30.63;17.73;;;6.80;99.90;;;;;;4855462;29;20507;-77
2022/11/28 02:36:28;;;;;;;33.03;17.25;;;6.80;99.90;;;;;;4845469;29;20037;-77
2022/11/28 02:39:16;;;;;;;24.90;15.70;;;6.70;99.90;;;;;;4851224;29;20057;-77
2022/11/28 02:42:00;;;;;;;32.05;17.83;;;6.70;99.90;;;;;;4852843;29;20038;-77
2022/11/28 02:44:55;;;;;;;28.98;16.00;;;6.70;99.90;;;;;;4847831;29;20050;-77
2022/11/28 02:47:30;;;;;;;30.73;16.98;;;6.70;99.90;;;;;;4850669;29;20053;-77
2022/11/28 02:50:18;;;;;;;27.70;15.93;;;6.70;99.90;;;;;;4854784;29;20116;-77
2022/11/28 02:53:02;;;;;;;24.63;14.50;;;6.70;99.90;;;;;;4852016;29;20041;-77
2022/11/28 02:55:28;;;;;;;25.33;15.18;;;6.70;99.90;;;;;;4850243;29;20025;-77
2022/11/28 02:57:54;;;;;;;27.20;14.93;;;6.80;99.90;;;;;;4853619;29;20045;-77
2022/11/28 03:00:32;;;;;;;22.50;14.15;;;6.80;99.90;;;;;;4853694;29;20906;-77
2022/11/28 03:03:16;;;;;;;22.13;13.80;;;6.90;99.90;;;;;;4860420;29;20053;-77
2022/11/28 03:06:04;;;;;;;22.80;14.07;;;6.80;99.90;;;;;;4856861;29;20050;-77
2022/11/28 03:09:04;;;;;;;29.17;15.45;;;6.80;99.90;;;;;;4857947;29;20163;-77
2022/11/28 03:12:09;;;;;;;23.40;14.18;;;6.60;99.90;;;;;;4859075;29;20057;-77
2022/11/28 03:14:52;;;;;;;22.40;14.13;;;6.50;99.90;;;;;;4829791;29;20045;-77
2022/11/28 03:17:21;;;;;;;24.55;14.57;;;6.60;99.90;;;;;;4852403;29;20128;-77
2022/11/28 03:20:00;;;;;;;25.52;15.10;;;6.60;99.90;;;;;;4859330;29;20053;-77
2022/11/28 03:22:39;;;;;;;23.02;15.27;;;6.60;99.90;;;;;;4856965;29;20077;-77
2022/11/28 03:25:30;;;;;;;26.25;14.70;;;6.50;99.90;;;;;;4852075;29;20049;-77
2022/11/28 03:28:06;;;;;;;26.63;14.32;;;6.50;99.90;;;;;;4859172;29;20041;-77
2022/11/28 03:30:40;;;;;;;24.67;15.23;;;6.60;99.90;;;;;;4855999;29;20055;-77
2022/11/28 03:33:07;;;;;;;22.17;14.55;;;6.60;99.90;;;;;;4851152;29;20033;-76
2022/11/28 03:35:39;;;;;;;24.92;14.43;;;6.60;99.90;;;;;;4855278;29;20037;-77
2022/11/28 03:38:08;;;;;;;;;;;6.50;99.90;;;;;;4848297;29;20073;-77
2022/11/28 03:40:41;;;;;;;26.65;14.82;;;6.50;99.90;;;;;;4856715;29;19916;-77
2022/11/28 03:43:16;;;;;;;29.23;15.63;;;6.50;99.90;;;;;;4849881;29;20056;-77
2022/11/28 03:45:47;;;;;;;26.45;15.60;;;6.50;99.90;;;;;;4858054;29;20160;-77
2022/11/28 03:48:20;;;;;;;26.53;15.70;;;6.60;99.90;;;;;;4851216;29;20041;-77
2022/11/28 03:51:00;;;;;;;27.02;15.00;;;6.50;99.90;;;;;;4853232;29;20296;-76
2022/11/28 03:53:49;;;;;;;26.13;15.55;;;6.60;99.90;;;;;;4855265;29;20037;-77
2022/11/28 03:56:44;;;;;;;27.20;16.05;;;6.60;99.90;;;;;;4857995;29;20033;-76
2022/11/28 03:59:33;;;;;;;26.13;15.23;;;6.60;99.90;;;;;;4857276;29;20287;-76
2022/11/28 04:02:33;;;;;;;26.23;15.73;;;6.60;99.90;;;;;;4850262;29;20152;-76
2022/11/28 04:05:09;;;;;;;25.27;14.77;;;6.60;99.90;;;;;;4853332;29;20097;-76
2022/11/28 04:07:49;;;;;;;25.50;16.10;;;6.50;99.90;;;;;;4848740;29;20398;-76
2022/11/28 04:10:30;;;;;;;28.23;15.23;;;6.60;99.90;;;;;;4856931;29;20033;-76
2022/11/28 04:13:18;;;;;;;31.30;17.93;;;6.60;99.90;;;;;;4856298;29;20674;-76
2022/11/28 04:15:57;;;;;;;30.60;17.23;;;6.60;99.90;;;;;;4854811;29;20060;-76
2022/11/28 04:18:37;;;;;;;29.92;17.55;;;6.70;99.90;;;;;;4857293;29;20053;-76
2022/11/28 04:21:14;;;;;;;29.52;16.42;;;6.70;99.90;;;;;;4855365;29;20053;-76
2022/11/28 04:23:43;;;;;;;30.10;17.98;;;6.70;99.90;;;;;;4858086;29;20399;-77
2022/11/28 04:26:16;;;;;;;31.80;17.95;;;6.70;99.90;;;;;;4850219;29;20059;-76
2022/11/28 04:28:44;;;;;;;31.25;17.83;;;6.60;99.90;;;;;;4852939;29;20071;-77
2022/11/28 04:31:11;;;;;;;30.60;17.08;;;6.60;99.90;;;;;;4855786;29;20098;-76
2022/11/28 04:33:42;;;;;;;28.20;17.02;;;6.60;99.90;;;;;;4855576;29;20115;-76
2022/11/28 04:36:10;;;;;;;39.15;20.77;;;6.60;99.90;;;;;;4855306;29;20743;-76
2022/11/28 04:38:38;;;;;;;31.73;18.70;;;6.60;99.90;;;;;;4845931;29;20057;-76
2022/11/28 04:41:27;;;;;;;29.02;16.73;;;6.70;99.90;;;;;;4854569;29;20223;-77
2022/11/28 04:44:02;;;;;;;33.95;18.23;;;6.60;99.90;;;;;;4856059;29;20080;-76
2022/11/28 04:46:36;;;;;;;36.75;20.48;;;6.70;99.90;;;;;;4855708;29;20033;-77
2022/11/28 04:49:02;;;;;;;35.58;19.25;;;6.60;99.90;;;;;;4856151;29;20483;-76
2022/11/28 04:51:40;;;;;;;34.13;18.25;;;6.60;99.90;;;;;;4856641;29;20108;-76
2022/11/28 04:54:13;;;;;;;33.95;17.90;;;6.50;99.90;;;;;;4853271;29;20041;-76
2022/11/28 04:57:01;;;;;;;29.40;15.73;;;6.50;99.90;;;;;;4839720;29;20038;-76
2022/11/28 04:59:30;;;;;;;30.95;16.50;;;6.50;99.90;;;;;;4851778;29;20040;-76
2022/11/28 05:01:57;;;;;;;26.98;15.30;;;6.50;99.90;;;;;;4855322;29;20033;-77
2022/11/28 05:04:23;;;;;;;32.40;17.15;;;6.40;99.90;;;;;;4853547;29;20509;-76
2022/11/28 05:06:49;;;;;;;27.35;16.48;;;6.40;99.90;;;;;;4834481;29;20046;-76
2022/11/28 05:09:14;;;;;;;30.63;18.20;;;6.30;99.90;;;;;;4842959;29;20051;-76
2022/11/28 05:11:40;;;;;;;29.40;16.88;;;6.40;99.90;;;;;;4857921;29;20041;-77
2022/11/28 05:14:06;;;;;;;24.90;15.02;;;6.40;99.90;;;;;;4856876;29;20033;-77
2022/11/28 05:16:32;;;;;;;27.48;15.50;;;6.40;99.90;;;;;;4856574;29;20538;-76
2022/11/28 05:18:57;;;;;;;28.42;15.85;;;6.30;99.90;;;;;;4857196;29;20069;-77
2022/11/28 05:21:23;;;;;;;22.25;14.00;;;6.30;99.90;;;;;;4853076;29;21178;-76
2022/11/28 05:23:49;;;;;;;27.95;17.48;;;6.30;99.90;;;;;;4856945;29;20132;-77
2022/11/28 05:26:18;;;;;;;25.98;15.88;;;6.30;99.90;;;;;;4855741;29;20044;-77
2022/11/28 05:28:49;;;;;;;30.25;17.25;;;6.40;99.90;;;;;;4850770;29;20128;-76
2022/11/28 05:31:16;;;;;;;25.23;15.15;;;6.40;99.90;;;;;;4853976;29;20028;-77
2022/11/28 05:33:41;;;;;;;30.63;17.10;;;6.40;99.90;;;;;;4850079;29;20057;-77
2022/11/28 05:36:12;;;;;;;30.98;17.60;;;6.40;99.90;;;;;;4850014;29;20069;-77
2022/11/28 05:38:38;;;;;;;27.83;16.88;;;6.30;99.90;;;;;;4849223;29;20045;-76
2022/11/28 05:41:04;;;;;;;27.67;17.05;;;6.30;99.90;;;;;;4855782;29;20071;-77
2022/11/28 05:43:30;;;;;;;28.75;17.42;;;6.30;99.90;;;;;;4850099;29;20063;-77
2022/11/28 05:45:55;;;;;;;28.50;17.58;;;6.20;99.90;;;;;;4847658;29;20037;-77
2022/11/28 05:48:22;;;;;;;23.92;15.20;;;6.20;99.90;;;;;;4855791;29;20626;-76
2022/11/28 05:50:49;;;;;;;29.50;17.65;;;6.20;99.90;;;;;;4852720;29;20045;-76
2022/11/28 05:53:17;;;;;;;25.60;15.93;;;6.20;99.90;;;;;;4857030;29;20049;-76
2022/11/28 05:55:43;;;;;;;32.95;18.92;;;6.20;99.90;;;;;;4853817;29;20436;-76
2022/11/28 05:58:08;;;;;;;35.33;19.30;;;6.20;99.90;;;;;;4853508;29;20049;-75
2022/11/28 06:00:34;;;;;;;29.90;17.33;;;6.10;99.90;;;;;;4857839;29;20029;-76
2022/11/28 06:03:00;;;;;;;30.73;18.38;;;6.20;99.90;;;;;;4859152;29;20049;-76
2022/11/28 06:05:26;;;;;;;30.20;18.05;;;6.30;99.90;;;;;;4856840;29;20373;-75
2022/11/28 06:07:52;;;;;;;30.55;16.75;;;6.30;99.90;;;;;;4860259;29;20064;-74
2022/11/28 06:10:18;;;;;;;31.75;19.52;;;6.30;99.90;;;;;;4853689;29;20101;-75
2022/11/28 06:12:44;;;;;;;36.15;20.98;;;6.30;99.90;;;;;;4857359;29;20105;-75
2022/11/28 06:15:10;;;;;;;32.63;18.70;;;6.30;99.90;;;;;;4849519;29;20082;-77
2022/11/28 06:17:35;;;;;;;31.52;18.90;;;6.30;99.90;;;;;;4843038;29;20097;-75
2022/11/28 06:20:01;;;;;;;37.22;20.50;;;6.30;99.90;;;;;;4844598;29;20045;-76
2022/11/28 06:22:26;;;;;;;38.92;20.85;;;6.30;99.90;;;;;;4830217;29;20164;-79
2022/11/28 06:24:52;;;;;;;32.15;20.20;;;6.30;99.90;;;;;;4851407;29;20574;-73
2022/11/28 06:27:18;;;;;;;33.70;18.73;;;6.30;99.90;;;;;;4852223;29;20517;-74
2022/11/28 06:29:43;;;;;;;38.03;20.85;;;6.30;99.90;;;;;;4845410;29;21833;-74
2022/11/28 06:32:09;;;;;;;36.40;21.23;;;6.40;99.90;;;;;;4847460;29;20133;-74
2022/11/28 06:34:35;;;;;;;33.33;19.77;;;6.40;99.90;;;;;;4848893;29;20111;-75
2022/11/28 06:37:00;;;;;;;35.38;19.70;;;6.40;99.90;;;;;;4839492;29;20037;-74
2022/11/28 06:39:26;;;;;;;42.05;24.50;;;6.50;99.90;;;;;;4848709;29;20630;-74
2022/11/28 06:41:51;;;;;;;33.85;19.65;;;6.50;99.90;;;;;;4851400;29;20124;-74
2022/11/28 06:44:18;;;;;;;32.58;18.75;;;6.40;99.90;;;;;;4853566;29;21182;-74
2022/11/28 06:46:44;;;;;;;33.95;20.30;;;6.40;99.90;;;;;;4855023;29;20132;-73
2022/11/28 06:49:13;;;;;;;34.35;20.25;;;6.40;99.90;;;;;;4863984;29;20499;-74
2022/11/28 06:51:39;;;;;;;34.75;22.00;;;6.40;99.90;;;;;;4858087;29;20049;-73
2022/11/28 06:54:06;;;;;;;39.53;21.98;;;6.40;99.90;;;;;;4863017;29;20026;-73
2022/11/28 06:56:31;;;;;;;38.13;22.35;;;6.40;99.90;;;;;;4860738;29;20498;-74
2022/11/28 06:58:58;;;;;;;37.58;21.60;;;6.50;99.90;;;;;;4861589;29;20059;-74
2022/11/28 07:01:27;;;;;;;28.27;17.75;;;6.60;99.90;;;;;;4858659;29;20479;-74
2022/11/28 07:03:55;;;;;;;30.48;18.00;;;6.60;99.90;;;;;;4861307;29;20418;-74
2022/11/28 07:06:23;;;;;;;29.85;17.45;;;6.60;99.90;;;;;;4858475;29;20034;-74
2022/11/28 07:08:49;;;;;;;29.55;19.25;;;6.60;99.90;;;;;;4858550;29;20124;-75
2022/11/28 07:11:16;;;;;;;31.42;19.73;;;6.60;99.90;;;;;;4851410;29;20048;-74
2022/11/28 07:13:44;;;;;;;29.50;19.80;;;6.60;99.90;;;;;;4858707;29;20048;-74
2022/11/28 07:16:17;;;;;;;30.67;19.23;;;6.60;99.90;;;;;;4861478;29;20104;-74
2022/11/28 07:18:44;;;;;;;30.52;20.25;;;6.60;99.90;;;;;;4859909;29;20044;-73
2022/11/28 07:21:10;;;;;;;35.78;22.13;;;6.60;99.90;;;;;;4858130;29;20123;-73
2022/11/28 07:23:36;;;;;;;37.95;23.65;;;6.70;99.90;;;;;;4843467;29;20041;-74
2022/11/28 07:26:03;;;;;;;31.65;19.40;;;6.60;99.90;;;;;;4859784;29;21728;-74
2022/11/28 07:28:29;;;;;;;30.48;20.20;;;6.60;99.90;;;;;;4857947;29;20060;-74
2022/11/28 07:31:00;;;;;;;29.13;19.92;;;6.70;99.90;;;;;;4854198;29;20044;-74
2022/11/28 07:33:26;;;;;;;30.50;18.40;;;6.70;99.90;;;;;;4858642;29;20130;-74
2022/11/28 07:35:52;;;;;;;28.50;18.92;;;6.60;99.90;;;;;;4859582;29;20828;-74
2022/11/28 07:38:17;;;;;;;27.15;16.80;;;6.70;99.90;;;;;;4856742;29;20056;-74
2022/11/28 07:40:43;;;;;;;31.23;19.08;;;6.70;99.90;;;;;;4856006;29;20082;-74
2022/11/28 07:43:09;;;;;;;29.83;18.42;;;6.80;99.90;;;;;;4853900;29;21772;-74
2022/11/28 07:45:38;;;;;;;27.05;17.50;;;6.70;99.90;;;;;;4854767;29;20048;-74
2022/11/28 07:48:04;;;;;;;29.20;17.20;;;6.70;99.90;;;;;;4855632;29;20081;-74
2022/11/28 07:50:29;;;;;;;24.02;16.30;;;6.70;99.90;;;;;;4851235;29;20038;-74
2022/11/28 07:52:56;;;;;;;26.23;16.58;;;6.70;99.90;;;;;;4854025;29;20071;-74
2022/11/28 07:55:22;;;;;;;25.15;17.20;;;6.80;99.90;;;;;;4856237;29;20045;-74
2022/11/28 07:57:47;;;;;;;23.75;15.23;;;6.80;99.90;;;;;;4858692;29;20141;-74
2022/11/28 08:00:14;;;;;;;26.73;16.38;;;6.70;99.90;;;;;;4862632;29;20034;-73
2022/11/28 08:02:39;;;;;;;25.15;16.73;;;6.60;99.90;;;;;;4858210;29;20041;-74
2022/11/28 08:05:05;;;;;;;26.45;17.92;;;6.70;99.90;;;;;;4860242;29;20503;-74
2022/11/28 08:07:31;;;;;;;27.42;18.77;;;6.70;99.90;;;;;;4858828;29;20068;-74
2022/11/28 08:09:56;;;;;;;27.35;17.33;;;6.80;99.90;;;;;;4861266;29;20407;-74
2022/11/28 08:12:22;;;;;;;26.98;17.40;;;6.80;99.90;;;;;;4856090;29;20040;-74
2022/11/28 08:14:47;;;;;;;25.77;16.05;;;6.90;99.90;;;;;;4858598;29;20482;-74
2022/11/28 08:17:13;;;;;;;29.50;16.63;;;6.90;99.90;;;;;;4842730;29;20053;-74
2022/11/28 08:19:39;;;;;;;26.73;17.02;;;6.80;99.90;;;;;;4853421;29;20060;-74
2022/11/28 08:22:04;;;;;;;29.17;17.67;;;6.80;99.90;;;;;;4852115;29;20041;-74
2022/11/28 08:24:30;;;;;;;25.50;16.73;;;6.90;99.90;;;;;;4854827;29;20052;-74
2022/11/28 08:26:56;;;;;;;26.92;15.88;;;6.90;99.90;;;;;;4853501;29;20102;-75
2022/11/28 08:29:21;;;;;;;24.52;14.82;;;6.90;99.90;;;;;;4855241;29;20045;-74
2022/11/28 08:31:47;;;;;;;21.73;15.15;;;6.90;99.90;;;;;;4856992;29;20588;-74
2022/11/28 08:34:13;;;;;;;22.08;14.57;;;6.90;99.90;;;;;;4847827;29;20649;-74
2022/11/28 08:36:38;;;;;;;23.70;14.88;;;6.80;99.90;;;;;;4856524;29;20041;-75
2022/11/28 08:39:05;;;;;;;21.27;13.98;;;6.80;99.90;;;;;;4861991;29;20418;-74
2022/11/28 08:41:30;;;;;;;24.55;15.35;;;6.80;99.90;;;;;;4857355;29;20048;-74
2022/11/28 08:43:56;;;;;;;21.58;14.65;;;6.80;99.90;;;;;;4847428;29;20045;-74
2022/11/28 08:46:22;;;;;;;23.13;13.95;;;6.90;99.90;;;;;;4849614;29;20550;-75
2022/11/28 08:48:50;;;;;;;22.45;14.43;;;6.90;99.90;;;;;;4852550;29;20033;-75
2022/11/28 08:51:22;;;;;;;22.92;12.73;;;6.90;99.90;;;;;;4840574;29;20596;-74
2022/11/28 08:53:48;;;;;;;19.67;13.30;;;7.00;99.90;;;;;;4861176;29;20073;-75
2022/11/28 08:56:14;;;;;;;19.48;13.77;;;6.90;99.90;;;;;;4861689;29;20045;-74
2022/11/28 08:58:40;;;;;;;21.83;14.13;;;7.00;99.90;;;;;;4860275;29;20071;-74
2022/11/28 09:01:14;;;;;;;19.98;12.98;;;7.00;99.90;;;;;;4840243;29;20041;-75
2022/11/28 09:03:40;;;;;;;20.55;13.70;;;7.00;99.90;;;;;;4845547;29;20471;-74
2022/11/28 09:06:06;;;;;;;20.20;13.25;;;6.90;99.90;;;;;;4854126;29;20053;-74
2022/11/28 09:08:31;;;;;;;20.98;13.98;;;6.90;99.90;;;;;;4850978;29;20049;-74
2022/11/28 09:10:57;;;;;;;22.92;14.75;;;6.90;99.90;;;;;;4853128;29;20037;-73
2022/11/28 09:13:22;;;;;;;24.08;14.43;;;7.00;99.90;;;;;;4840181;29;20025;-73
2022/11/28 09:15:48;;;;;;;21.95;13.45;;;7.00;99.90;;;;;;4850193;29;20049;-73
2022/11/28 09:18:14;;;;;;;22.38;13.63;;;7.00;99.90;;;;;;4849694;29;20045;-73
2022/11/28 09:20:41;;;;;;;20.80;13.68;;;7.00;99.90;;;;;;4864193;29;20040;-73
2022/11/28 09:23:08;;;;;;;20.33;13.88;;;7.00;99.90;;;;;;4873896;29;20048;-73
2022/11/28 09:25:34;;;;;;;20.00;13.25;;;7.10;99.90;;;;;;4863691;29;20038;-74
2022/11/28 09:28:00;;;;;;;21.83;12.77;;;7.10;99.90;;;;;;4876588;29;20044;-74
2022/11/28 09:30:26;;;;;;;18.00;12.43;;;6.90;99.90;;;;;;4867853;29;20394;-74
2022/11/28 09:32:52;;;;;;;18.58;12.27;;;6.90;99.90;;;;;;4876061;29;20109;-74
2022/11/28 09:35:18;;;;;;;22.30;13.23;;;6.90;99.90;;;;;;4877871;29;20052;-74
2022/11/28 09:37:43;;;;;;;17.58;11.48;;;6.80;99.90;;;;;;4869706;29;20045;-73
2022/11/28 09:40:18;;;;;;;19.20;12.18;;;6.80;99.90;;;;;;4861458;29;20040;-73
2022/11/28 09:42:45;;;;;;;16.15;11.32;;;6.80;99.90;;;;;;4880257;29;20050;-74
2022/11/28 09:45:18;;;;;;;15.20;10.85;;;6.80;99.90;;;;;;4872619;29;20059;-74
2022/11/28 09:47:52;;;;;;;18.95;11.75;;;6.90;99.90;;;;;;4869008;29;20040;-74
2022/11/28 09:50:31;;;;;;;16.10;10.52;;;6.80;99.90;;;;;;4864646;29;20045;-74
2022/11/28 09:53:19;;;;;;;16.90;10.35;;;6.80;99.90;;;;;;4855672;29;20036;-74
2022/11/28 09:55:50;;;;;;;41.25;24.90;;;6.80;99.90;;;;;;4883962;29;20688;-73
2022/11/28 09:58:22;;;;;;;23.27;11.17;;;6.70;99.90;;;;;;4886337;29;20112;-76
2022/11/28 10:01:22;;;;;;;16.48;10.57;;;6.70;99.90;;;;;;4876751;29;20096;-73
2022/11/28 10:03:54;;;;;;;15.60;10.68;;;6.70;99.90;;;;;;4883860;29;20068;-74
2022/11/28 10:06:57;;;;;;;16.25;10.68;;;6.90;99.90;;;;;;4857274;29;20143;-74
2022/11/28 10:09:29;;;;;;;;;;;6.80;99.90;;;;;;4860939;29;20071;-73
2022/11/28 10:12:25;;;;;;;17.93;10.77;;;6.90;99.90;;;;;;4879646;29;19978;-74
2022/11/28 10:15:20;;;;;;;20.33;10.85;;;6.90;99.90;;;;;;4877316;29;20024;-75
2022/11/28 10:17:56;;;;;;;17.67;11.57;;;6.90;99.90;;;;;;4877786;29;20767;-74
2022/11/28 10:20:26;;;;;;;20.48;12.45;;;6.90;99.90;;;;;;4866885;29;20570;-74
2022/11/28 10:23:00;;;;;;;19.77;11.90;;;6.80;99.90;;;;;;4853337;29;20072;-74
2022/11/28 10:25:33;;;;;;;19.73;12.77;;;6.90;99.90;;;;;;4856484;29;20052;-74
2022/11/28 10:28:00;;;;;;;20.83;12.80;;;6.90;99.90;;;;;;4861191;29;20055;-74
2022/11/28 10:30:32;;;;;;;19.55;13.35;;;6.90;99.90;;;;;;4845279;29;20137;-74
2022/11/28 10:33:24;;;;;;;19.92;13.88;;;6.90;99.90;;;;;;4857418;29;20996;-74
2022/11/28 10:35:56;;;;;;;25.15;13.93;;;6.90;99.90;;;;;;4857664;29;20048;-73
2022/11/28 10:38:24;;;;;;;;;;;7.00;99.90;;;;;;4860972;29;20118;-76
2022/11/28 10:40:57;;;;;;;18.77;11.07;;;6.80;99.90;;;;;;4859776;29;19917;-74
2022/11/28 10:43:48;;;;;;;20.40;11.95;;;6.80;99.90;;;;;;4852825;29;20041;-73
2022/11/28 10:46:29;;;;;;;29.63;15.60;;;6.80;99.90;;;;;;4849973;29;20089;-75
2022/11/28 10:49:09;;;;;;;22.58;14.15;;;6.80;99.90;;;;;;4840438;29;20559;-74
2022/11/28 10:52:03;;;;;;;25.27;14.43;;;6.80;99.90;;;;;;4844279;29;20037;-74
2022/11/28 10:54:34;;;;;;;19.25;13.63;;;6.80;99.90;;;;;;4853203;29;20061;-75
2022/11/28 10:56:59;;;;;;;20.17;13.88;;;6.90;99.90;;;;;;4865560;29;20125;-74
2022/11/28 10:59:36;;;;;;;16.45;11.63;;;7.00;99.90;;;;;;4863894;29;20045;-74
2022/11/28 11:02:25;;;;;;;20.08;12.05;;;7.10;99.90;;;;;;4868089;29;20505;-75
2022/11/28 11:04:51;;;;;;;17.90;12.27;;;7.00;99.90;;;;;;4852140;29;20049;-75
2022/11/28 11:07:24;;;;;;;19.73;13.05;;;7.00;99.90;;;;;;4868437;29;20037;-75
2022/11/28 11:09:50;;;;;;;17.45;12.07;;;7.00;99.90;;;;;;4865188;29;20088;-75
2022/11/28 11:12:24;;;;;;;18.33;12.13;;;6.90;99.90;;;;;;4869822;29;20068;-74
2022/11/28 11:14:50;;;;;;;17.45;11.55;;;7.00;99.90;;;;;;4859836;29;20137;-74
2022/11/28 11:17:32;;;;;;;18.17;11.93;;;7.00;99.90;;;;;;4865062;29;20068;-74
2022/11/28 11:19:57;;;;;;;22.08;13.90;;;7.10;99.90;;;;;;4867918;29;20770;-74
2022/11/28 11:22:27;;;;;;;18.25;12.45;;;7.20;99.90;;;;;;4864757;29;20116;-74
2022/11/28 11:25:11;;;;;;;19.15;12.60;;;7.20;99.90;;;;;;4864651;29;20025;-74
2022/11/28 11:27:45;;;;;;;19.83;13.15;;;7.20;99.90;;;;;;4862957;29;20041;-74
2022/11/28 11:30:29;;;;;;;18.10;12.18;;;7.30;99.90;;;;;;4867754;29;20049;-74
2022/11/28 11:32:57;;;;;;;16.33;10.73;;;7.20;99.90;;;;;;4863499;29;20033;-74
2022/11/28 11:35:28;;;;;;;17.45;10.77;;;7.10;99.90;;;;;;4852574;29;20599;-76
2022/11/28 11:38:17;;;;;;;20.60;12.98;;;7.10;99.90;;;;;;4851055;29;20057;-74
2022/11/28 11:40:43;;;;;;;19.73;12.95;;;7.10;99.90;;;;;;4867886;29;20032;-74
2022/11/28 11:43:28;;;;;;;21.15;13.93;;;7.00;99.90;;;;;;4869337;29;20483;-74
2022/11/28 11:46:14;;;;;;;17.42;12.02;;;6.90;99.90;;;;;;4857197;29;20033;-74
2022/11/28 11:48:45;;;;;;;17.20;12.15;;;6.90;99.90;;;;;;4833143;29;20065;-74
2022/11/28 11:51:31;;;;;;;21.20;13.43;;;6.80;99.90;;;;;;4864593;29;20041;-74
2022/11/28 11:54:12;;;;;;;17.38;11.68;;;6.80;99.90;;;;;;4851867;29;20129;-76
2022/11/28 11:56:40;;;;;;;18.98;12.05;;;6.80;99.90;;;;;;4861912;29;20703;-73
2022/11/28 11:59:14;;;;;;;16.60;12.15;;;6.80;99.90;;;;;;4863428;29;20148;-73
2022/11/28 12:01:42;;;;;;;18.20;11.52;;;6.90;99.90;;;;;;4857958;29;20049;-75
2022/11/28 12:04:23;;;;;;;18.10;11.60;;;6.90;99.90;;;;;;4857782;29;20044;-75
2022/11/28 12:06:52;;;;;;;16.88;11.23;;;6.90;99.90;;;;;;4857954;29;20037;-74
2022/11/28 12:09:55;;;;;;;16.73;12.18;;;6.80;99.90;;;;;;4863177;29;20045;-74
2022/11/28 12:12:28;;;;;;;17.05;11.80;;;6.80;99.90;;;;;;4847184;29;20040;-74
2022/11/28 12:14:54;;;;;;;19.23;12.32;;;6.70;99.90;;;;;;4853182;29;20499;-74
2022/11/28 12:17:36;;;;;;;20.17;13.25;;;6.70;99.90;;;;;;4843960;29;20509;-74
2022/11/28 12:20:20;;;;;;;19.05;12.88;;;6.70;99.90;;;;;;4859700;29;20074;-74
2022/11/28 12:23:03;;;;;;;21.95;12.77;;;6.80;99.90;;;;;;4847955;29;20041;-74
2022/11/28 12:25:38;;;;;;;20.23;13.15;;;6.80;99.90;;;;;;4853719;29;20042;-74
2022/11/28 12:28:22;;;;;;;19.83;12.27;;;6.90;99.90;;;;;;4856705;29;20110;-74
2022/11/28 12:30:53;;;;;;;22.30;14.20;;;6.90;99.90;;;;;;4848516;29;20045;-74
2022/11/28 12:33:25;;;;;;;22.52;14.32;;;6.90;99.90;;;;;;4856484;29;20175;-74
2022/11/28 12:36:00;;;;;;;24.23;13.43;;;6.70;99.90;;;;;;4862204;29;20040;-74
2022/11/28 12:38:50;;;;;;;20.92;11.90;;;6.70;99.90;;;;;;4857306;29;20053;-74
2022/11/28 12:41:28;;;;;;;24.27;13.48;;;6.60;99.90;;;;;;4851656;29;20078;-74
2022/11/28 12:44:26;;;;;;;19.73;12.13;;;6.60;99.90;;;;;;4862186;29;20036;-74
2022/11/28 12:47:42;;;;;;;21.70;12.98;;;6.60;99.90;;;;;;4860594;29;20047;-76
2022/11/28 12:50:29;;;;;;;19.52;12.55;;;6.70;99.90;;;;;;4799281;29;20104;-74
2022/11/28 12:53:36;;;;;;;22.08;14.32;;;6.80;99.90;;;;;;4804749;29;20141;-74
2022/11/28 12:56:33;;;;;;;18.08;12.10;;;6.90;99.90;;;;;;4844878;29;20040;-74
2022/11/28 12:59:07;;;;;;;22.55;11.98;;;6.90;99.90;;;;;;4866961;29;20139;-73
2022/11/28 13:02:06;;;;;;;21.48;13.18;;;6.80;99.90;;;;;;4860829;29;20102;-73
2022/11/28 13:04:53;;;;;;;20.30;13.38;;;6.80;99.90;;;;;;4856218;29;20505;-74